sensor_id;sensor_type;location;lat;lon;timestamp;P1;durP1;ratioP1;P2;durP2;ratioP2
42196;SDS011;27866;48.146;17.098;2024-03-07T00:03:39;15.45;;;9.43;;
42196;SDS011;27866;48.146;17.098;2024-03-07T00:07:51;14.73;;;8.73;;
42196;SDS011;27866;48.146;17.098;2024-03-07T00:12:04;14.60;;;8.75;;
42196;SDS011;27866;48.146;17.098;2024-03-07T00:16:17;14.00;;;9.17;;
42196;SDS011;27866;48.146;17.098;2024-03-07T00:20:29;15.32;;;9.40;;
42196;SDS011;27866;48.146;17.098;2024-03-07T00:24:40;11.05;;;7.25;;
42196;SDS011;27866;48.146;17.098;2024-03-07T00:28:59;14.88;;;8.93;;
42196;SDS011;27866;48.146;17.098;2024-03-07T00:33:14;13.85;;;8.57;;
42196;SDS011;27866;48.146;17.098;2024-03-07T00:37:26;11.00;;;7.88;;
42196;SDS011;27866;48.146;17.098;2024-03-07T00:41:38;14.20;;;9.00;;
42196;SDS011;27866;48.146;17.098;2024-03-07T00:45:50;15.55;;;9.95;;
42196;SDS011;27866;48.146;17.098;2024-03-07T00:50:01;16.80;;;10.68;;
42196;SDS011;27866;48.146;17.098;2024-03-07T00:54:13;17.02;;;10.18;;
42196;SDS011;27866;48.146;17.098;2024-03-07T00:58:24;17.60;;;9.43;;
42196;SDS011;27866;48.146;17.098;2024-03-07T01:02:38;17.77;;;10.70;;
42196;SDS011;27866;48.146;17.098;2024-03-07T01:06:56;17.67;;;10.02;;
42196;SDS011;27866;48.146;17.098;2024-03-07T01:11:08;18.10;;;11.25;;
42196;SDS011;27866;48.146;17.098;2024-03-07T01:15:22;18.30;;;11.05;;
42196;SDS011;27866;48.146;17.098;2024-03-07T01:19:34;16.15;;;11.30;;
42196;SDS011;27866;48.146;17.098;2024-03-07T01:23:46;21.25;;;11.68;;
42196;SDS011;27866;48.146;17.098;2024-03-07T01:27:57;20.27;;;10.88;;
42196;SDS011;27866;48.146;17.098;2024-03-07T01:32:08;17.42;;;10.35;;
42196;SDS011;27866;48.146;17.098;2024-03-07T01:36:20;24.75;;;11.25;;
42196;SDS011;27866;48.146;17.098;2024-03-07T01:40:32;21.38;;;11.77;;
42196;SDS011;27866;48.146;17.098;2024-03-07T01:44:43;26.02;;;14.15;;
42196;SDS011;27866;48.146;17.098;2024-03-07T01:48:55;22.92;;;14.00;;
42196;SDS011;27866;48.146;17.098;2024-03-07T01:53:09;22.98;;;13.20;;
42196;SDS011;27866;48.146;17.098;2024-03-07T01:57:22;26.02;;;14.45;;
42196;SDS011;27866;48.146;17.098;2024-03-07T02:01:33;29.33;;;15.50;;
42196;SDS011;27866;48.146;17.098;2024-03-07T02:05:47;25.40;;;14.73;;
42196;SDS011;27866;48.146;17.098;2024-03-07T02:10:04;26.08;;;14.80;;
42196;SDS011;27866;48.146;17.098;2024-03-07T02:14:16;24.42;;;13.70;;
42196;SDS011;27866;48.146;17.098;2024-03-07T02:18:28;25.35;;;13.70;;
42196;SDS011;27866;48.146;17.098;2024-03-07T02:22:39;27.30;;;14.77;;
42196;SDS011;27866;48.146;17.098;2024-03-07T02:26:51;24.42;;;14.13;;
42196;SDS011;27866;48.146;17.098;2024-03-07T02:31:03;26.83;;;15.30;;
42196;SDS011;27866;48.146;17.098;2024-03-07T02:35:14;24.77;;;14.70;;
42196;SDS011;27866;48.146;17.098;2024-03-07T02:39:26;26.25;;;14.57;;
42196;SDS011;27866;48.146;17.098;2024-03-07T02:43:37;27.08;;;14.05;;
42196;SDS011;27866;48.146;17.098;2024-03-07T02:47:49;25.52;;;13.73;;
42196;SDS011;27866;48.146;17.098;2024-03-07T02:52:00;28.33;;;14.38;;
42196;SDS011;27866;48.146;17.098;2024-03-07T02:56:12;26.40;;;14.77;;
42196;SDS011;27866;48.146;17.098;2024-03-07T03:00:23;27.00;;;15.15;;
42196;SDS011;27866;48.146;17.098;2024-03-07T03:04:40;30.73;;;15.27;;
42196;SDS011;27866;48.146;17.098;2024-03-07T03:08:51;26.70;;;15.68;;
42196;SDS011;27866;48.146;17.098;2024-03-07T03:13:04;29.75;;;15.80;;
42196;SDS011;27866;48.146;17.098;2024-03-07T03:17:17;28.17;;;15.05;;
42196;SDS011;27866;48.146;17.098;2024-03-07T03:21:28;27.40;;;13.95;;
42196;SDS011;27866;48.146;17.098;2024-03-07T03:25:40;29.10;;;14.55;;
42196;SDS011;27866;48.146;17.098;2024-03-07T03:29:52;24.13;;;12.85;;
42196;SDS011;27866;48.146;17.098;2024-03-07T03:34:03;26.50;;;13.40;;
42196;SDS011;27866;48.146;17.098;2024-03-07T03:38:15;18.95;;;11.57;;
42196;SDS011;27866;48.146;17.098;2024-03-07T03:42:30;20.88;;;11.10;;
42196;SDS011;27866;48.146;17.098;2024-03-07T03:46:41;21.13;;;10.75;;
42196;SDS011;27866;48.146;17.098;2024-03-07T03:50:53;19.60;;;11.02;;
42196;SDS011;27866;48.146;17.098;2024-03-07T03:55:05;15.57;;;9.73;;
42196;SDS011;27866;48.146;17.098;2024-03-07T03:59:17;16.75;;;9.95;;
42196;SDS011;27866;48.146;17.098;2024-03-07T04:03:28;13.35;;;8.38;;
42196;SDS011;27866;48.146;17.098;2024-03-07T04:07:41;11.68;;;7.22;;
42196;SDS011;27866;48.146;17.098;2024-03-07T04:11:52;11.13;;;7.30;;
42196;SDS011;27866;48.146;17.098;2024-03-07T04:16:04;10.27;;;6.65;;
42196;SDS011;27866;48.146;17.098;2024-03-07T04:20:15;11.32;;;6.65;;
42196;SDS011;27866;48.146;17.098;2024-03-07T04:24:27;10.57;;;6.53;;
42196;SDS011;27866;48.146;17.098;2024-03-07T04:28:40;9.25;;;6.30;;
42196;SDS011;27866;48.146;17.098;2024-03-07T04:32:51;8.30;;;5.97;;
42196;SDS011;27866;48.146;17.098;2024-03-07T04:37:03;8.93;;;5.85;;
42196;SDS011;27866;48.146;17.098;2024-03-07T04:41:14;9.75;;;6.07;;
42196;SDS011;27866;48.146;17.098;2024-03-07T04:45:26;9.45;;;6.18;;
42196;SDS011;27866;48.146;17.098;2024-03-07T04:49:37;10.10;;;6.65;;
42196;SDS011;27866;48.146;17.098;2024-03-07T04:53:50;10.32;;;6.93;;
42196;SDS011;27866;48.146;17.098;2024-03-07T04:58:02;10.73;;;7.53;;
42196;SDS011;27866;48.146;17.098;2024-03-07T05:02:15;9.95;;;7.25;;
42196;SDS011;27866;48.146;17.098;2024-03-07T05:06:27;11.75;;;7.35;;
42196;SDS011;27866;48.146;17.098;2024-03-07T05:10:39;9.93;;;7.05;;
42196;SDS011;27866;48.146;17.098;2024-03-07T05:14:52;12.38;;;7.32;;
42196;SDS011;27866;48.146;17.098;2024-03-07T05:19:04;10.20;;;7.35;;
42196;SDS011;27866;48.146;17.098;2024-03-07T05:23:18;14.10;;;8.27;;
42196;SDS011;27866;48.146;17.098;2024-03-07T05:27:30;12.18;;;8.27;;
42196;SDS011;27866;48.146;17.098;2024-03-07T05:31:43;13.48;;;7.72;;
42196;SDS011;27866;48.146;17.098;2024-03-07T05:35:58;11.80;;;7.80;;
42196;SDS011;27866;48.146;17.098;2024-03-07T05:40:24;13.98;;;8.75;;
42196;SDS011;27866;48.146;17.098;2024-03-07T05:44:36;14.45;;;8.90;;
42196;SDS011;27866;48.146;17.098;2024-03-07T05:48:47;14.07;;;9.00;;
42196;SDS011;27866;48.146;17.098;2024-03-07T05:53:02;14.85;;;8.88;;
42196;SDS011;27866;48.146;17.098;2024-03-07T05:57:15;14.38;;;9.27;;
42196;SDS011;27866;48.146;17.098;2024-03-07T06:01:26;14.82;;;8.75;;
42196;SDS011;27866;48.146;17.098;2024-03-07T06:05:38;17.83;;;9.23;;
42196;SDS011;27866;48.146;17.098;2024-03-07T06:09:53;14.25;;;8.77;;
42196;SDS011;27866;48.146;17.098;2024-03-07T06:14:05;15.02;;;8.85;;
42196;SDS011;27866;48.146;17.098;2024-03-07T06:18:17;14.88;;;9.23;;
42196;SDS011;27866;48.146;17.098;2024-03-07T06:22:29;13.93;;;8.20;;
42196;SDS011;27866;48.146;17.098;2024-03-07T06:26:40;17.50;;;9.20;;
42196;SDS011;27866;48.146;17.098;2024-03-07T06:30:54;15.43;;;9.07;;
42196;SDS011;27866;48.146;17.098;2024-03-07T06:35:06;14.60;;;8.82;;
42196;SDS011;27866;48.146;17.098;2024-03-07T06:39:18;17.90;;;9.68;;
42196;SDS011;27866;48.146;17.098;2024-03-07T06:43:32;18.38;;;8.98;;
42196;SDS011;27866;48.146;17.098;2024-03-07T06:47:43;28.88;;;9.93;;
42196;SDS011;27866;48.146;17.098;2024-03-07T06:51:55;31.77;;;9.63;;
42196;SDS011;27866;48.146;17.098;2024-03-07T06:56:06;23.50;;;9.23;;
42196;SDS011;27866;48.146;17.098;2024-03-07T07:00:18;30.77;;;10.25;;
42196;SDS011;27866;48.146;17.098;2024-03-07T07:04:30;28.55;;;10.77;;
42196;SDS011;27866;48.146;17.098;2024-03-07T07:08:51;18.85;;;8.98;;
42196;SDS011;27866;48.146;17.098;2024-03-07T07:13:03;47.83;;;10.45;;
42196;SDS011;27866;48.146;17.098;2024-03-07T07:17:15;18.30;;;8.77;;
42196;SDS011;27866;48.146;17.098;2024-03-07T07:21:26;50.42;;;11.38;;
42196;SDS011;27866;48.146;17.098;2024-03-07T07:25:38;21.13;;;9.48;;
42196;SDS011;27866;48.146;17.098;2024-03-07T07:29:51;25.65;;;9.40;;
42196;SDS011;27866;48.146;17.098;2024-03-07T07:34:02;15.85;;;9.07;;
42196;SDS011;27866;48.146;17.098;2024-03-07T07:38:14;17.85;;;8.55;;
42196;SDS011;27866;48.146;17.098;2024-03-07T07:42:26;16.88;;;8.57;;
42196;SDS011;27866;48.146;17.098;2024-03-07T07:46:38;19.70;;;9.10;;
42196;SDS011;27866;48.146;17.098;2024-03-07T07:50:50;13.90;;;8.50;;
42196;SDS011;27866;48.146;17.098;2024-03-07T07:55:02;13.20;;;7.95;;
42196;SDS011;27866;48.146;17.098;2024-03-07T07:59:14;12.98;;;7.47;;
42196;SDS011;27866;48.146;17.098;2024-03-07T08:03:25;19.63;;;8.80;;
42196;SDS011;27866;48.146;17.098;2024-03-07T08:07:37;13.90;;;8.88;;
42196;SDS011;27866;48.146;17.098;2024-03-07T08:11:49;14.70;;;8.10;;
42196;SDS011;27866;48.146;17.098;2024-03-07T08:16:03;11.90;;;7.70;;
42196;SDS011;27866;48.146;17.098;2024-03-07T08:20:16;13.48;;;8.32;;
42196;SDS011;27866;48.146;17.098;2024-03-07T08:24:31;13.90;;;8.23;;
42196;SDS011;27866;48.146;17.098;2024-03-07T08:28:42;14.68;;;8.18;;
42196;SDS011;27866;48.146;17.098;2024-03-07T08:32:54;13.73;;;7.85;;
42196;SDS011;27866;48.146;17.098;2024-03-07T08:37:07;11.90;;;6.90;;
42196;SDS011;27866;48.146;17.098;2024-03-07T08:41:19;12.80;;;7.40;;
42196;SDS011;27866;48.146;17.098;2024-03-07T08:45:30;14.23;;;8.50;;
42196;SDS011;27866;48.146;17.098;2024-03-07T08:49:45;57.13;;;11.18;;
42196;SDS011;27866;48.146;17.098;2024-03-07T08:53:57;31.60;;;9.57;;
42196;SDS011;27866;48.146;17.098;2024-03-07T08:58:09;34.53;;;9.68;;
42196;SDS011;27866;48.146;17.098;2024-03-07T09:02:21;31.02;;;8.98;;
42196;SDS011;27866;48.146;17.098;2024-03-07T09:06:33;13.20;;;7.13;;
42196;SDS011;27866;48.146;17.098;2024-03-07T09:10:44;139.27;;;16.65;;
42196;SDS011;27866;48.146;17.098;2024-03-07T09:14:56;14.65;;;7.15;;
42196;SDS011;27866;48.146;17.098;2024-03-07T09:19:07;14.20;;;7.95;;
42196;SDS011;27866;48.146;17.098;2024-03-07T09:23:24;14.82;;;8.10;;
42196;SDS011;27866;48.146;17.098;2024-03-07T09:27:42;18.52;;;7.57;;
42196;SDS011;27866;48.146;17.098;2024-03-07T09:31:59;16.48;;;7.85;;
42196;SDS011;27866;48.146;17.098;2024-03-07T09:36:11;19.05;;;7.53;;
42196;SDS011;27866;48.146;17.098;2024-03-07T09:40:23;12.60;;;6.60;;
42196;SDS011;27866;48.146;17.098;2024-03-07T09:44:38;13.30;;;7.38;;
42196;SDS011;27866;48.146;17.098;2024-03-07T09:48:52;16.73;;;7.88;;
42196;SDS011;27866;48.146;17.098;2024-03-07T09:53:05;15.23;;;6.80;;
42196;SDS011;27866;48.146;17.098;2024-03-07T09:57:18;12.32;;;7.15;;
42196;SDS011;27866;48.146;17.098;2024-03-07T10:01:32;13.80;;;7.43;;
42196;SDS011;27866;48.146;17.098;2024-03-07T10:05:44;12.65;;;7.18;;
42196;SDS011;27866;48.146;17.098;2024-03-07T10:09:56;16.95;;;7.53;;
42196;SDS011;27866;48.146;17.098;2024-03-07T10:14:10;16.45;;;7.40;;
42196;SDS011;27866;48.146;17.098;2024-03-07T10:18:22;19.85;;;7.80;;
42196;SDS011;27866;48.146;17.098;2024-03-07T10:22:34;21.83;;;7.53;;
42196;SDS011;27866;48.146;17.098;2024-03-07T10:26:47;14.85;;;8.43;;
42196;SDS011;27866;48.146;17.098;2024-03-07T10:30:59;15.25;;;7.50;;
42196;SDS011;27866;48.146;17.098;2024-03-07T10:35:10;13.82;;;7.80;;
42196;SDS011;27866;48.146;17.098;2024-03-07T10:39:24;16.50;;;8.60;;
42196;SDS011;27866;48.146;17.098;2024-03-07T10:43:36;15.98;;;8.88;;
42196;SDS011;27866;48.146;17.098;2024-03-07T10:47:54;14.07;;;7.95;;
42196;SDS011;27866;48.146;17.098;2024-03-07T10:52:12;17.40;;;8.60;;
42196;SDS011;27866;48.146;17.098;2024-03-07T10:56:39;16.25;;;8.88;;
42196;SDS011;27866;48.146;17.098;2024-03-07T11:01:25;14.95;;;8.93;;
42196;SDS011;27866;48.146;17.098;2024-03-07T11:05:40;16.95;;;8.38;;
42196;SDS011;27866;48.146;17.098;2024-03-07T11:09:54;15.07;;;8.82;;
42196;SDS011;27866;48.146;17.098;2024-03-07T11:14:07;15.43;;;9.35;;
42196;SDS011;27866;48.146;17.098;2024-03-07T11:18:21;14.27;;;8.35;;
42196;SDS011;27866;48.146;17.098;2024-03-07T11:22:32;15.63;;;8.68;;
42196;SDS011;27866;48.146;17.098;2024-03-07T11:26:47;14.95;;;8.55;;
42196;SDS011;27866;48.146;17.098;2024-03-07T11:31:14;15.15;;;9.00;;
42196;SDS011;27866;48.146;17.098;2024-03-07T11:35:35;12.68;;;7.95;;
42196;SDS011;27866;48.146;17.098;2024-03-07T11:39:47;17.35;;;9.55;;
42196;SDS011;27866;48.146;17.098;2024-03-07T11:44:03;21.80;;;9.55;;
42196;SDS011;27866;48.146;17.098;2024-03-07T11:48:16;18.30;;;8.98;;
42196;SDS011;27866;48.146;17.098;2024-03-07T11:52:30;18.25;;;8.60;;
42196;SDS011;27866;48.146;17.098;2024-03-07T11:56:43;22.67;;;9.17;;
42196;SDS011;27866;48.146;17.098;2024-03-07T12:00:55;17.70;;;8.48;;
42196;SDS011;27866;48.146;17.098;2024-03-07T12:05:08;21.53;;;8.80;;
42196;SDS011;27866;48.146;17.098;2024-03-07T12:09:20;34.47;;;10.50;;
42196;SDS011;27866;48.146;17.098;2024-03-07T12:13:34;19.23;;;9.13;;
42196;SDS011;27866;48.146;17.098;2024-03-07T12:17:46;46.45;;;10.80;;
42196;SDS011;27866;48.146;17.098;2024-03-07T12:22:00;34.17;;;9.95;;
42196;SDS011;27866;48.146;17.098;2024-03-07T12:26:12;114.68;;;16.73;;
42196;SDS011;27866;48.146;17.098;2024-03-07T12:30:35;22.10;;;8.70;;
42196;SDS011;27866;48.146;17.098;2024-03-07T12:34:56;42.35;;;10.25;;
42196;SDS011;27866;48.146;17.098;2024-03-07T12:39:08;14.80;;;8.60;;
42196;SDS011;27866;48.146;17.098;2024-03-07T12:43:34;17.75;;;9.05;;
42196;SDS011;27866;48.146;17.098;2024-03-07T12:47:55;16.33;;;9.10;;
42196;SDS011;27866;48.146;17.098;2024-03-07T12:52:10;19.43;;;9.77;;
42196;SDS011;27866;48.146;17.098;2024-03-07T12:56:25;23.73;;;11.10;;
42196;SDS011;27866;48.146;17.098;2024-03-07T13:00:40;17.70;;;10.45;;
42196;SDS011;27866;48.146;17.098;2024-03-07T13:04:52;30.38;;;11.07;;
42196;SDS011;27866;48.146;17.098;2024-03-07T13:09:04;23.63;;;11.02;;
42196;SDS011;27866;48.146;17.098;2024-03-07T13:13:20;24.40;;;12.00;;
42196;SDS011;27866;48.146;17.098;2024-03-07T13:17:33;20.17;;;12.45;;
42196;SDS011;27866;48.146;17.098;2024-03-07T13:21:45;35.28;;;13.20;;
42196;SDS011;27866;48.146;17.098;2024-03-07T13:26:01;33.78;;;13.48;;
42196;SDS011;27866;48.146;17.098;2024-03-07T13:30:18;27.45;;;13.48;;
42196;SDS011;27866;48.146;17.098;2024-03-07T13:34:37;32.78;;;14.45;;
42196;SDS011;27866;48.146;17.098;2024-03-07T13:38:49;36.20;;;13.13;;
42196;SDS011;27866;48.146;17.098;2024-03-07T13:43:02;52.55;;;15.57;;
42196;SDS011;27866;48.146;17.098;2024-03-07T13:47:15;27.15;;;13.57;;
42196;SDS011;27866;48.146;17.098;2024-03-07T13:51:27;29.20;;;14.05;;
42196;SDS011;27866;48.146;17.098;2024-03-07T14:00:20;38.22;;;15.00;;
42196;SDS011;27866;48.146;17.098;2024-03-07T14:33:00;33.42;;;17.83;;
42196;SDS011;27866;48.146;17.098;2024-03-07T14:37:27;32.20;;;17.67;;
42196;SDS011;27866;48.146;17.098;2024-03-07T14:42:01;36.30;;;17.92;;
42196;SDS011;27866;48.146;17.098;2024-03-07T14:46:25;38.67;;;18.70;;
42196;SDS011;27866;48.146;17.098;2024-03-07T14:50:37;44.80;;;19.45;;
42196;SDS011;27866;48.146;17.098;2024-03-07T14:54:51;31.90;;;17.90;;
42196;SDS011;27866;48.146;17.098;2024-03-07T14:59:03;33.30;;;18.17;;
42196;SDS011;27866;48.146;17.098;2024-03-07T15:03:16;35.50;;;18.23;;
42196;SDS011;27866;48.146;17.098;2024-03-07T15:07:30;30.27;;;16.40;;
42196;SDS011;27866;48.146;17.098;2024-03-07T15:11:41;34.28;;;16.65;;
42196;SDS011;27866;48.146;17.098;2024-03-07T15:15:53;32.90;;;17.60;;
42196;SDS011;27866;48.146;17.098;2024-03-07T15:20:07;32.85;;;16.70;;
42196;SDS011;27866;48.146;17.098;2024-03-07T15:24:25;30.98;;;16.75;;
42196;SDS011;27866;48.146;17.098;2024-03-07T15:28:37;31.98;;;16.52;;
42196;SDS011;27866;48.146;17.098;2024-03-07T15:32:49;33.40;;;15.30;;
42196;SDS011;27866;48.146;17.098;2024-03-07T15:37:01;33.10;;;15.57;;
42196;SDS011;27866;48.146;17.098;2024-03-07T15:41:12;32.60;;;15.45;;
42196;SDS011;27866;48.146;17.098;2024-03-07T15:45:25;33.10;;;16.88;;
42196;SDS011;27866;48.146;17.098;2024-03-07T15:49:38;28.17;;;16.02;;
42196;SDS011;27866;48.146;17.098;2024-03-07T15:53:51;32.70;;;16.35;;
42196;SDS011;27866;48.146;17.098;2024-03-07T15:58:04;29.33;;;15.30;;
42196;SDS011;27866;48.146;17.098;2024-03-07T16:02:17;34.42;;;16.77;;
42196;SDS011;27866;48.146;17.098;2024-03-07T16:06:28;37.40;;;17.38;;
42196;SDS011;27866;48.146;17.098;2024-03-07T16:10:40;34.45;;;17.83;;
42196;SDS011;27866;48.146;17.098;2024-03-07T16:14:52;33.67;;;18.30;;
42196;SDS011;27866;48.146;17.098;2024-03-07T16:19:06;32.25;;;17.08;;
42196;SDS011;27866;48.146;17.098;2024-03-07T16:23:20;35.05;;;18.13;;
42196;SDS011;27866;48.146;17.098;2024-03-07T16:27:32;35.88;;;17.58;;
42196;SDS011;27866;48.146;17.098;2024-03-07T16:31:43;33.63;;;17.85;;
42196;SDS011;27866;48.146;17.098;2024-03-07T16:35:55;34.15;;;16.88;;
42196;SDS011;27866;48.146;17.098;2024-03-07T16:40:17;37.60;;;18.33;;
42196;SDS011;27866;48.146;17.098;2024-03-07T16:44:30;33.28;;;17.52;;
42196;SDS011;27866;48.146;17.098;2024-03-07T16:48:42;36.35;;;18.20;;
42196;SDS011;27866;48.146;17.098;2024-03-07T16:52:54;37.67;;;18.45;;
42196;SDS011;27866;48.146;17.098;2024-03-07T16:57:06;33.97;;;17.95;;
42196;SDS011;27866;48.146;17.098;2024-03-07T17:01:18;38.10;;;19.02;;
42196;SDS011;27866;48.146;17.098;2024-03-07T17:05:30;38.47;;;19.08;;
42196;SDS011;27866;48.146;17.098;2024-03-07T17:09:43;40.03;;;19.10;;
42196;SDS011;27866;48.146;17.098;2024-03-07T17:13:54;36.65;;;18.65;;
42196;SDS011;27866;48.146;17.098;2024-03-07T17:18:06;37.70;;;18.27;;
42196;SDS011;27866;48.146;17.098;2024-03-07T17:22:22;35.53;;;19.65;;
42196;SDS011;27866;48.146;17.098;2024-03-07T17:26:34;38.90;;;18.58;;
42196;SDS011;27866;48.146;17.098;2024-03-07T17:30:45;36.58;;;18.90;;
42196;SDS011;27866;48.146;17.098;2024-03-07T17:34:58;45.80;;;21.25;;
42196;SDS011;27866;48.146;17.098;2024-03-07T17:39:10;46.08;;;20.35;;
42196;SDS011;27866;48.146;17.098;2024-03-07T17:43:25;41.85;;;20.13;;
42196;SDS011;27866;48.146;17.098;2024-03-07T17:47:37;43.47;;;20.45;;
42196;SDS011;27866;48.146;17.098;2024-03-07T17:51:51;42.53;;;19.98;;
42196;SDS011;27866;48.146;17.098;2024-03-07T17:56:03;41.75;;;20.55;;
42196;SDS011;27866;48.146;17.098;2024-03-07T18:00:16;41.00;;;20.73;;
42196;SDS011;27866;48.146;17.098;2024-03-07T18:04:36;45.33;;;21.38;;
42196;SDS011;27866;48.146;17.098;2024-03-07T18:08:49;42.85;;;20.85;;
42196;SDS011;27866;48.146;17.098;2024-03-07T18:13:00;46.17;;;22.50;;
42196;SDS011;27866;48.146;17.098;2024-03-07T18:17:13;53.17;;;22.50;;
42196;SDS011;27866;48.146;17.098;2024-03-07T18:21:32;47.80;;;21.08;;
42196;SDS011;27866;48.146;17.098;2024-03-07T18:25:45;42.45;;;20.20;;
42196;SDS011;27866;48.146;17.098;2024-03-07T18:29:57;41.20;;;19.92;;
42196;SDS011;27866;48.146;17.098;2024-03-07T18:34:21;45.40;;;21.13;;
42196;SDS011;27866;48.146;17.098;2024-03-07T18:38:32;49.10;;;21.27;;
42196;SDS011;27866;48.146;17.098;2024-03-07T18:42:44;44.42;;;21.42;;
42196;SDS011;27866;48.146;17.098;2024-03-07T18:46:55;43.47;;;22.23;;
42196;SDS011;27866;48.146;17.098;2024-03-07T18:51:07;46.28;;;21.70;;
42196;SDS011;27866;48.146;17.098;2024-03-07T18:55:19;46.85;;;22.15;;
42196;SDS011;27866;48.146;17.098;2024-03-07T18:59:39;46.95;;;21.83;;
42196;SDS011;27866;48.146;17.098;2024-03-07T19:03:51;46.92;;;20.60;;
42196;SDS011;27866;48.146;17.098;2024-03-07T19:08:03;49.60;;;23.00;;
42196;SDS011;27866;48.146;17.098;2024-03-07T19:12:30;53.08;;;23.77;;
42196;SDS011;27866;48.146;17.098;2024-03-07T19:16:47;46.13;;;23.10;;
42196;SDS011;27866;48.146;17.098;2024-03-07T19:20:59;47.47;;;22.48;;
42196;SDS011;27866;48.146;17.098;2024-03-07T19:25:19;52.13;;;22.98;;
42196;SDS011;27866;48.146;17.098;2024-03-07T19:29:31;48.67;;;22.45;;
42196;SDS011;27866;48.146;17.098;2024-03-07T19:33:43;47.50;;;23.83;;
42196;SDS011;27866;48.146;17.098;2024-03-07T19:37:55;47.78;;;22.10;;
42196;SDS011;27866;48.146;17.098;2024-03-07T19:42:06;48.58;;;22.08;;
42196;SDS011;27866;48.146;17.098;2024-03-07T19:46:20;55.37;;;23.57;;
42196;SDS011;27866;48.146;17.098;2024-03-07T19:50:31;47.75;;;23.98;;
42196;SDS011;27866;48.146;17.098;2024-03-07T19:54:43;46.28;;;22.73;;
42196;SDS011;27866;48.146;17.098;2024-03-07T19:58:55;51.15;;;23.50;;
42196;SDS011;27866;48.146;17.098;2024-03-07T20:03:06;49.28;;;22.58;;
42196;SDS011;27866;48.146;17.098;2024-03-07T20:07:18;53.20;;;23.80;;
42196;SDS011;27866;48.146;17.098;2024-03-07T20:11:32;57.90;;;24.38;;
42196;SDS011;27866;48.146;17.098;2024-03-07T20:15:46;50.92;;;24.80;;
42196;SDS011;27866;48.146;17.098;2024-03-07T20:19:58;47.05;;;22.27;;
42196;SDS011;27866;48.146;17.098;2024-03-07T20:24:09;47.72;;;24.13;;
42196;SDS011;27866;48.146;17.098;2024-03-07T20:28:21;46.88;;;23.10;;
42196;SDS011;27866;48.146;17.098;2024-03-07T20:32:35;45.33;;;23.08;;
42196;SDS011;27866;48.146;17.098;2024-03-07T20:36:47;54.67;;;23.00;;
42196;SDS011;27866;48.146;17.098;2024-03-07T20:40:59;50.97;;;22.98;;
42196;SDS011;27866;48.146;17.098;2024-03-07T20:45:11;49.10;;;23.48;;
42196;SDS011;27866;48.146;17.098;2024-03-07T20:53:38;50.53;;;23.35;;
42196;SDS011;27866;48.146;17.098;2024-03-07T20:57:50;53.85;;;24.58;;
42196;SDS011;27866;48.146;17.098;2024-03-07T21:02:06;50.15;;;24.00;;
42196;SDS011;27866;48.146;17.098;2024-03-07T21:06:19;53.53;;;23.13;;
42196;SDS011;27866;48.146;17.098;2024-03-07T21:10:30;53.92;;;24.25;;
42196;SDS011;27866;48.146;17.098;2024-03-07T21:14:42;50.45;;;23.25;;
42196;SDS011;27866;48.146;17.098;2024-03-07T21:18:54;51.28;;;24.23;;
42196;SDS011;27866;48.146;17.098;2024-03-07T21:23:05;53.72;;;24.88;;
42196;SDS011;27866;48.146;17.098;2024-03-07T21:27:17;45.88;;;23.58;;
42196;SDS011;27866;48.146;17.098;2024-03-07T21:31:29;56.55;;;23.83;;
42196;SDS011;27866;48.146;17.098;2024-03-07T21:35:40;53.70;;;25.08;;
42196;SDS011;27866;48.146;17.098;2024-03-07T21:39:54;52.45;;;24.10;;
42196;SDS011;27866;48.146;17.098;2024-03-07T21:44:06;48.05;;;23.92;;
42196;SDS011;27866;48.146;17.098;2024-03-07T21:48:19;48.25;;;23.30;;
42196;SDS011;27866;48.146;17.098;2024-03-07T21:52:32;41.00;;;21.23;;
42196;SDS011;27866;48.146;17.098;2024-03-07T21:56:44;38.33;;;18.38;;
42196;SDS011;27866;48.146;17.098;2024-03-07T22:00:56;42.20;;;19.70;;
42196;SDS011;27866;48.146;17.098;2024-03-07T22:05:08;33.47;;;17.40;;
42196;SDS011;27866;48.146;17.098;2024-03-07T22:09:23;32.70;;;16.05;;
42196;SDS011;27866;48.146;17.098;2024-03-07T22:13:34;29.88;;;16.02;;
42196;SDS011;27866;48.146;17.098;2024-03-07T22:17:46;32.03;;;17.23;;
42196;SDS011;27866;48.146;17.098;2024-03-07T22:21:58;29.02;;;15.02;;
42196;SDS011;27866;48.146;17.098;2024-03-07T22:26:10;30.83;;;16.23;;
42196;SDS011;27866;48.146;17.098;2024-03-07T22:30:24;28.63;;;15.05;;
42196;SDS011;27866;48.146;17.098;2024-03-07T22:34:39;31.65;;;16.73;;
42196;SDS011;27866;48.146;17.098;2024-03-07T22:38:51;34.17;;;16.42;;
42196;SDS011;27866;48.146;17.098;2024-03-07T22:43:02;31.92;;;16.42;;
42196;SDS011;27866;48.146;17.098;2024-03-07T22:47:15;32.63;;;17.58;;
42196;SDS011;27866;48.146;17.098;2024-03-07T22:51:27;37.78;;;19.60;;
42196;SDS011;27866;48.146;17.098;2024-03-07T22:55:39;43.67;;;21.17;;
42196;SDS011;27866;48.146;17.098;2024-03-07T22:59:50;44.85;;;21.48;;
42196;SDS011;27866;48.146;17.098;2024-03-07T23:04:02;42.75;;;22.05;;
42196;SDS011;27866;48.146;17.098;2024-03-07T23:08:15;41.22;;;20.17;;
42196;SDS011;27866;48.146;17.098;2024-03-07T23:12:27;38.78;;;18.98;;
42196;SDS011;27866;48.146;17.098;2024-03-07T23:16:38;39.88;;;20.23;;
42196;SDS011;27866;48.146;17.098;2024-03-07T23:20:50;35.65;;;18.10;;
42196;SDS011;27866;48.146;17.098;2024-03-07T23:25:02;40.03;;;18.80;;
42196;SDS011;27866;48.146;17.098;2024-03-07T23:29:14;33.88;;;18.10;;
42196;SDS011;27866;48.146;17.098;2024-03-07T23:33:25;30.33;;;16.02;;
42196;SDS011;27866;48.146;17.098;2024-03-07T23:37:37;32.35;;;15.95;;
42196;SDS011;27866;48.146;17.098;2024-03-07T23:41:49;34.42;;;16.45;;
42196;SDS011;27866;48.146;17.098;2024-03-07T23:46:00;34.25;;;17.63;;
42196;SDS011;27866;48.146;17.098;2024-03-07T23:50:12;34.42;;;17.80;;
42196;SDS011;27866;48.146;17.098;2024-03-07T23:54:24;40.85;;;18.10;;
42196;SDS011;27866;48.146;17.098;2024-03-07T23:58:36;35.25;;;17.90;;
